createdAt,value
2024-02-02T00:01:57.618Z,50.53
2024-02-02T00:04:25.457Z,54.10
2024-02-02T00:06:53.167Z,47.28
2024-02-02T00:09:22.451Z,57.03
2024-02-02T00:11:50.250Z,52.15
2024-02-02T00:14:18.452Z,60.30
2024-02-02T00:16:46.566Z,54.55
2024-02-02T00:19:16.542Z,57.45
2024-02-02T00:21:44.318Z,58.90
2024-02-02T00:24:12.006Z,56.05
2024-02-02T00:26:40.461Z,55.15
2024-02-02T00:29:08.160Z,56.30
2024-02-02T00:31:36.450Z,57.40
2024-02-02T00:34:04.283Z,56.42
2024-02-02T00:36:34.520Z,55.70
2024-02-02T00:39:02.281Z,56.55
2024-02-02T00:41:30.479Z,46.25
2024-02-02T00:43:58.223Z,52.58
2024-02-02T00:46:26.493Z,51.95
2024-02-02T00:48:54.256Z,62.53
2024-02-02T00:51:22.544Z,49.72
2024-02-02T00:53:51.809Z,56.80
2024-02-02T00:56:20.570Z,57.05
2024-02-02T00:58:48.276Z,56.33
2024-02-02T01:01:16.517Z,48.55
2024-02-02T01:03:44.246Z,57.55
2024-02-02T01:06:12.630Z,58.17
2024-02-02T01:08:40.370Z,59.50
2024-02-02T01:11:10.534Z,57.22
2024-02-02T01:13:38.249Z,69.13
2024-02-02T01:16:07.496Z,52.95
2024-02-02T01:18:35.511Z,62.80
2024-02-02T01:21:04.521Z,51.97
2024-02-02T01:23:32.264Z,54.23
2024-02-02T01:26:00.013Z,55.50
2024-02-02T01:28:30.503Z,49.70
2024-02-02T01:30:58.194Z,58.85
2024-02-02T01:33:25.956Z,59.23
2024-02-02T01:35:53.955Z,45.75
2024-02-02T01:38:22.522Z,53.42
2024-02-02T01:40:51.113Z,46.78
2024-02-02T01:43:19.547Z,51.95
2024-02-02T01:45:48.600Z,53.03
2024-02-02T01:48:17.645Z,55.88
2024-02-02T01:50:45.430Z,58.22
2024-02-02T01:53:13.513Z,46.17
2024-02-02T01:55:41.514Z,47.03
2024-02-02T01:58:09.516Z,41.83
2024-02-02T02:00:38.028Z,40.47
2024-02-02T02:03:07.603Z,44.63
2024-02-02T02:05:36.982Z,44.03
2024-02-02T02:08:05.550Z,39.65
2024-02-02T02:10:33.635Z,48.40
2024-02-02T02:13:01.554Z,51.75
2024-02-02T02:15:29.353Z,45.97
2024-02-02T02:17:57.371Z,38.20
2024-02-02T02:20:27.756Z,38.07
2024-02-02T02:22:56.954Z,41.80
2024-02-02T02:25:25.608Z,44.38
2024-02-02T02:27:53.536Z,39.53
2024-02-02T02:30:21.597Z,40.05
2024-02-02T02:32:49.543Z,45.75
2024-02-02T02:35:18.581Z,43.60
2024-02-02T02:37:46.266Z,39.90
2024-02-02T02:40:16.577Z,42.03
2024-02-02T02:42:44.278Z,43.40
2024-02-02T02:45:13.617Z,47.53
2024-02-02T02:47:43.624Z,35.75
2024-02-02T02:50:12.632Z,33.85
2024-02-02T02:52:40.315Z,39.92
2024-02-02T02:55:08.601Z,48.40
2024-02-02T02:57:37.720Z,39.95
2024-02-02T03:00:10.754Z,37.22
2024-02-02T03:02:38.628Z,46.10
2024-02-02T03:05:07.729Z,44.25
2024-02-02T03:07:35.530Z,38.28
2024-02-02T03:10:03.236Z,41.45
2024-02-02T03:12:31.641Z,33.40
2024-02-02T03:15:00.937Z,42.25
2024-02-02T03:17:29.651Z,41.22
2024-02-02T03:19:57.491Z,39.50
2024-02-02T03:22:25.425Z,47.83
2024-02-02T03:24:53.648Z,44.92
2024-02-02T03:27:22.498Z,43.08
2024-02-02T03:29:50.628Z,38.00
2024-02-02T03:32:19.744Z,43.35
2024-02-02T03:34:48.594Z,44.90
2024-02-02T03:37:16.398Z,42.10
2024-02-02T03:39:47.643Z,45.05
2024-02-02T03:42:15.352Z,51.28
2024-02-02T03:44:43.655Z,43.58
2024-02-02T03:47:11.337Z,48.00
2024-02-02T03:49:40.947Z,45.93
2024-02-02T03:52:09.002Z,46.05
2024-02-02T03:54:37.724Z,50.90
2024-02-02T03:57:05.789Z,49.15
2024-02-02T03:59:33.658Z,53.38
2024-02-02T04:02:01.549Z,46.05
2024-02-02T04:04:29.239Z,63.95
2024-02-02T04:06:58.682Z,52.88
2024-02-02T04:09:26.351Z,48.60
2024-02-02T04:11:54.710Z,54.80
2024-02-02T04:14:23.412Z,51.67
2024-02-02T04:16:51.671Z,53.42
2024-02-02T04:19:20.917Z,46.85
2024-02-02T04:21:49.786Z,60.72
2024-02-02T04:24:19.113Z,55.60
2024-02-02T04:26:47.739Z,54.15
2024-02-02T04:29:15.389Z,58.10
2024-02-02T04:31:43.731Z,59.70
2024-02-02T04:34:12.243Z,53.53
2024-02-02T04:36:41.518Z,66.82
2024-02-02T04:39:09.776Z,53.35
2024-02-02T04:41:38.871Z,57.97
2024-02-02T04:44:06.823Z,57.05
2024-02-02T04:46:35.728Z,55.78
2024-02-02T04:49:03.605Z,52.70
2024-02-02T04:51:31.835Z,49.60
2024-02-02T04:53:59.548Z,61.22
2024-02-02T04:56:27.723Z,55.78
2024-02-02T04:58:56.798Z,60.42
2024-02-02T05:01:24.585Z,53.58
2024-02-02T05:03:52.775Z,61.28
2024-02-02T05:06:20.455Z,58.40
2024-02-02T05:08:48.768Z,51.83
2024-02-02T05:11:16.527Z,54.00
2024-02-02T05:13:44.757Z,55.55
2024-02-02T05:16:15.687Z,57.42
2024-02-02T05:18:45.066Z,51.53
2024-02-02T05:21:12.889Z,55.80
2024-02-02T05:23:47.140Z,53.53
2024-02-02T05:26:17.360Z,55.33
2024-02-02T05:28:56.755Z,51.53
2024-02-02T05:31:25.826Z,51.58
2024-02-02T05:33:53.891Z,57.47
2024-02-02T05:36:21.659Z,54.90
2024-02-02T05:38:49.791Z,48.35
2024-02-02T05:41:17.430Z,47.00
2024-02-02T05:43:45.760Z,52.60
2024-02-02T05:46:13.449Z,50.17
2024-02-02T05:48:42.958Z,44.53
2024-02-02T05:51:10.717Z,50.25
2024-02-02T05:53:38.402Z,42.85
2024-02-02T05:56:06.816Z,43.85
2024-02-02T05:58:34.488Z,42.47
2024-02-02T06:01:02.184Z,50.30
2024-02-02T06:03:30.851Z,43.38
2024-02-02T06:05:59.967Z,48.53
2024-02-02T06:08:27.820Z,45.40
2024-02-02T06:10:56.025Z,51.38
2024-02-02T06:13:23.705Z,38.38
2024-02-02T06:15:51.856Z,46.72
2024-02-02T06:18:20.966Z,45.55
2024-02-02T06:20:49.827Z,38.10
2024-02-02T06:23:18.920Z,38.03
2024-02-02T06:25:46.580Z,44.78
2024-02-02T06:28:15.839Z,32.05
2024-02-02T06:30:43.941Z,36.97
2024-02-02T06:33:12.687Z,38.50
2024-02-02T06:35:40.844Z,38.30
2024-02-02T06:38:08.605Z,42.00
2024-02-02T06:40:37.831Z,35.83
2024-02-02T06:43:06.389Z,40.08
2024-02-02T06:45:34.892Z,40.15
2024-02-02T06:48:03.087Z,39.40
2024-02-02T06:50:32.881Z,35.92
2024-02-02T06:53:00.565Z,50.00
2024-02-02T06:55:28.870Z,40.92
2024-02-02T06:57:57.987Z,41.13
2024-02-02T07:00:27.121Z,39.05
2024-02-02T07:02:55.012Z,37.33
2024-02-02T07:05:23.221Z,36.57
2024-02-02T07:07:51.887Z,27.40
2024-02-02T07:10:19.552Z,30.90
2024-02-02T07:12:56.061Z,31.50
2024-02-02T07:15:26.495Z,32.00
2024-02-02T07:17:55.021Z,37.78
2024-02-02T07:20:59.891Z,27.58
2024-02-02T07:23:36.946Z,36.38
2024-02-02T07:26:05.847Z,34.88
2024-02-02T07:28:38.438Z,25.52
2024-02-02T07:31:09.350Z,34.80
2024-02-02T07:33:41.061Z,33.85
2024-02-02T07:36:12.098Z,35.85
2024-02-02T07:38:50.998Z,32.33
2024-02-02T07:41:20.005Z,32.45
2024-02-02T07:43:49.083Z,31.27
2024-02-02T07:46:18.421Z,36.47
2024-02-02T07:48:48.339Z,35.20
2024-02-02T07:51:19.274Z,31.80
2024-02-02T07:53:47.884Z,35.72
2024-02-02T07:56:19.322Z,18.85
2024-02-02T07:58:56.290Z,29.70
2024-02-02T08:01:26.026Z,29.90
2024-02-02T08:03:53.983Z,27.60
2024-02-02T08:06:22.103Z,33.83
2024-02-02T08:08:49.826Z,32.13
2024-02-02T08:11:17.931Z,29.48
2024-02-02T08:13:45.670Z,25.63
2024-02-02T08:16:13.940Z,23.03
2024-02-02T08:18:43.389Z,28.73
2024-02-02T08:21:12.034Z,34.20
2024-02-02T08:23:39.767Z,26.58
2024-02-02T08:26:09.004Z,23.42
2024-02-02T08:28:45.659Z,31.77
2024-02-02T08:31:19.963Z,30.70
2024-02-02T08:33:49.282Z,36.10
2024-02-02T08:36:20.062Z,28.75
2024-02-02T08:38:47.986Z,32.70
2024-02-02T08:43:54.980Z,32.58
2024-02-02T08:46:24.153Z,30.55
2024-02-02T08:48:55.596Z,31.70
2024-02-02T08:51:49.142Z,32.90
2024-02-02T08:54:38.295Z,27.90
2024-02-02T08:57:27.043Z,31.05
2024-02-02T08:59:55.014Z,34.35
2024-02-02T09:02:43.064Z,25.83
2024-02-02T09:05:22.186Z,32.85
2024-02-02T09:07:54.026Z,31.45
2024-02-02T09:11:05.016Z,31.30
2024-02-02T09:13:35.169Z,36.13
2024-02-02T09:16:03.162Z,31.85
2024-02-02T09:18:35.063Z,32.43
2024-02-02T09:21:05.541Z,31.75
2024-02-02T09:23:55.062Z,28.47
2024-02-02T09:26:33.066Z,27.38
2024-02-02T09:29:03.063Z,40.33
2024-02-02T09:31:36.548Z,38.63
2024-02-02T09:34:08.347Z,30.05
2024-02-02T09:36:38.849Z,36.30
2024-02-02T09:39:11.162Z,36.50
2024-02-02T09:41:57.069Z,37.20
2024-02-02T09:44:37.422Z,36.90
2024-02-02T09:47:21.104Z,35.05
2024-02-02T09:49:55.763Z,35.83
2024-02-02T09:52:36.092Z,46.92
2024-02-02T09:55:09.837Z,33.95
2024-02-02T09:57:43.034Z,35.90
2024-02-02T10:00:18.200Z,34.50
2024-02-02T10:02:54.057Z,39.90
2024-02-02T10:05:34.486Z,31.48
2024-02-02T10:08:16.113Z,37.05
2024-02-02T10:10:58.918Z,33.23
2024-02-02T10:13:36.398Z,32.50
2024-02-02T10:16:15.081Z,37.35
2024-02-02T10:19:08.424Z,30.42
2024-02-02T10:21:46.172Z,41.03
2024-02-02T10:24:25.578Z,40.40
2024-02-02T10:27:07.130Z,33.67
2024-02-02T10:29:43.366Z,37.45
2024-02-02T10:32:28.187Z,36.60
2024-02-02T10:35:06.982Z,39.23
2024-02-02T10:37:37.143Z,39.65
2024-02-02T10:40:29.864Z,37.72
2024-02-02T10:43:16.100Z,30.58
2024-02-02T10:45:50.058Z,31.35
2024-02-02T10:48:34.215Z,28.02
2024-02-02T10:51:09.832Z,31.25
2024-02-02T10:53:46.184Z,39.53
2024-02-02T10:56:25.170Z,43.13
2024-02-02T10:59:16.362Z,42.78
2024-02-02T11:01:50.136Z,46.05
2024-02-02T11:04:28.134Z,44.00
2024-02-02T11:07:09.274Z,44.38
2024-02-02T11:09:45.070Z,44.72
2024-02-02T11:12:21.222Z,50.00
2024-02-02T11:14:52.467Z,55.47
2024-02-02T11:17:26.144Z,45.53
2024-02-02T11:20:05.945Z,44.30
2024-02-02T11:22:40.251Z,40.33
2024-02-02T11:25:14.345Z,55.40
2024-02-02T11:27:51.183Z,51.60
2024-02-02T11:30:32.630Z,46.20
2024-02-02T11:33:14.269Z,44.75
2024-02-02T11:35:48.628Z,48.03
2024-02-02T11:38:45.184Z,44.00
2024-02-02T11:41:18.892Z,46.38
2024-02-02T11:43:49.226Z,50.42
2024-02-02T11:46:19.391Z,46.57
2024-02-02T11:48:53.339Z,45.08
2024-02-02T11:51:22.396Z,48.58
2024-02-02T11:53:56.183Z,43.13
2024-02-02T11:56:29.019Z,47.93
2024-02-02T11:59:06.197Z,45.78
2024-02-02T12:01:44.222Z,48.15
2024-02-02T12:04:24.243Z,33.17
2024-02-02T12:06:59.331Z,46.63
2024-02-02T12:09:33.532Z,52.13
2024-02-02T12:12:02.567Z,48.33
2024-02-02T12:14:33.954Z,49.90
2024-02-02T12:17:02.212Z,44.53
2024-02-02T12:22:18.228Z,54.08
2024-02-02T12:24:48.716Z,48.85
2024-02-02T12:27:17.268Z,51.75
2024-02-02T12:30:09.795Z,47.85
2024-02-02T12:32:38.233Z,56.28
2024-02-02T12:35:06.770Z,56.87
2024-02-02T12:37:47.217Z,60.05
2024-02-02T12:40:15.275Z,62.00
2024-02-02T12:42:44.287Z,54.78
2024-02-02T12:45:14.738Z,54.90
2024-02-02T12:47:43.670Z,54.78
2024-02-02T12:50:16.533Z,49.17
2024-02-02T12:52:45.227Z,56.58
2024-02-02T12:55:14.820Z,48.88
2024-02-02T12:57:43.455Z,56.42
2024-02-02T13:00:15.400Z,58.60
2024-02-02T13:02:48.094Z,63.80
2024-02-02T13:05:18.626Z,54.13
2024-02-02T13:07:49.386Z,55.63
2024-02-02T13:10:18.692Z,50.45
2024-02-02T13:12:47.116Z,61.20
2024-02-02T13:15:18.346Z,49.90
2024-02-02T13:18:00.992Z,50.90
2024-02-02T13:20:33.444Z,54.00
2024-02-02T13:23:07.271Z,57.90
2024-02-02T13:25:34.975Z,61.03
2024-02-02T13:28:04.596Z,62.90
2024-02-02T13:30:34.349Z,47.15
2024-02-02T13:33:08.681Z,39.55
2024-02-02T13:35:41.390Z,47.45
2024-02-02T13:38:22.420Z,46.40
2024-02-02T13:40:50.670Z,56.63
2024-02-02T13:43:20.291Z,57.20
2024-02-02T13:45:49.367Z,46.78
2024-02-02T13:48:19.510Z,51.88
2024-02-02T13:50:53.104Z,57.20
2024-02-02T13:53:24.343Z,54.10
2024-02-02T13:55:53.197Z,53.63
2024-02-02T13:58:22.392Z,52.10
2024-02-02T14:00:50.735Z,55.10
2024-02-02T14:03:22.420Z,52.25
2024-02-02T14:05:51.498Z,53.45
2024-02-02T14:08:20.247Z,49.60
2024-02-02T14:10:49.105Z,43.05
2024-02-02T14:13:20.627Z,37.22
2024-02-02T14:15:51.432Z,52.42
2024-02-02T14:18:23.343Z,53.22
2024-02-02T14:20:51.210Z,45.72
2024-02-02T14:23:19.549Z,53.20
2024-02-02T14:25:49.506Z,53.08
2024-02-02T14:28:18.377Z,47.03
2024-02-02T14:30:46.689Z,45.92
2024-02-02T14:33:24.479Z,49.13
2024-02-02T14:35:56.358Z,40.30
2024-02-02T14:38:24.161Z,42.27
2024-02-02T14:40:54.555Z,54.92
2024-02-02T14:43:22.383Z,48.45
2024-02-02T14:45:50.844Z,55.55
2024-02-02T14:48:20.901Z,50.95
2024-02-02T14:50:48.763Z,49.97
2024-02-02T14:53:18.420Z,49.47
2024-02-02T14:55:46.176Z,52.97
2024-02-02T14:58:15.390Z,49.00
2024-02-02T15:00:45.869Z,51.55
2024-02-02T15:03:14.560Z,50.60
2024-02-02T15:05:42.407Z,53.00
2024-02-02T15:08:11.430Z,50.58
2024-02-02T15:10:42.099Z,48.65
2024-02-02T15:13:12.417Z,44.97
2024-02-02T15:15:40.258Z,55.50
2024-02-02T15:18:09.545Z,49.58
2024-02-02T15:20:37.365Z,46.50
2024-02-02T15:23:05.653Z,59.60
2024-02-02T15:25:33.389Z,56.28
2024-02-02T15:28:02.574Z,60.57
2024-02-02T15:30:30.475Z,58.03
2024-02-02T15:32:58.158Z,62.30
2024-02-02T15:35:26.462Z,63.25
2024-02-02T15:37:54.333Z,56.60
2024-02-02T15:40:22.457Z,61.33
2024-02-02T15:42:51.837Z,59.15
2024-02-02T15:45:21.193Z,68.53
2024-02-02T15:47:51.927Z,71.47
2024-02-02T15:50:19.997Z,63.83
2024-02-02T15:52:47.891Z,69.07
2024-02-02T15:55:16.064Z,68.47
2024-02-02T15:57:46.490Z,66.10
2024-02-02T16:00:15.411Z,66.82
2024-02-02T16:02:45.000Z,64.15
2024-02-02T16:05:17.460Z,71.10
2024-02-02T16:07:45.563Z,73.57
2024-02-02T16:10:14.508Z,69.38
2024-02-02T16:12:42.321Z,71.20
2024-02-02T16:15:11.502Z,80.28
2024-02-02T16:17:40.550Z,78.75
2024-02-02T16:20:12.531Z,73.65
2024-02-02T16:22:40.796Z,80.22
2024-02-02T16:25:11.483Z,73.53
2024-02-02T16:27:39.661Z,80.07
2024-02-02T16:30:09.528Z,83.95
2024-02-02T16:32:37.395Z,79.05
2024-02-02T16:35:07.778Z,83.50
2024-02-02T16:37:39.531Z,90.53
2024-02-02T16:40:09.507Z,80.10
2024-02-02T16:42:37.627Z,85.53
2024-02-02T16:45:06.583Z,79.55
2024-02-02T16:47:34.637Z,90.63
2024-02-02T16:50:02.394Z,81.22
2024-02-02T16:52:30.667Z,88.57
2024-02-02T16:54:59.723Z,81.72
2024-02-02T16:57:28.773Z,87.20
2024-02-02T16:59:58.530Z,89.50
2024-02-02T17:02:26.291Z,99.75
2024-02-02T17:04:54.633Z,90.93
2024-02-02T17:07:23.957Z,88.53
2024-02-02T17:09:52.637Z,85.63
2024-02-02T17:12:22.857Z,97.43
2024-02-02T17:14:51.542Z,97.28
2024-02-02T17:17:20.092Z,95.65
2024-02-02T17:19:48.617Z,89.25
2024-02-02T17:22:16.706Z,90.03
2024-02-02T17:24:45.593Z,89.47
2024-02-02T17:27:13.285Z,92.67
2024-02-02T17:29:45.565Z,78.25
2024-02-02T17:32:17.312Z,89.78
2024-02-02T17:34:49.266Z,92.85
2024-02-02T17:37:17.164Z,90.30
2024-02-02T17:39:46.685Z,83.60
2024-02-02T17:42:14.506Z,102.53
2024-02-02T17:44:42.557Z,81.72
2024-02-02T17:47:12.338Z,99.38
2024-02-02T17:49:45.551Z,95.13
2024-02-02T17:52:16.931Z,89.78
2024-02-02T17:54:45.722Z,88.18
2024-02-02T17:57:13.579Z,91.37
2024-02-02T17:59:42.587Z,94.28
2024-02-02T18:02:12.024Z,90.50
2024-02-02T18:04:40.613Z,91.28
2024-02-02T18:07:09.822Z,107.17
2024-02-02T18:09:40.642Z,105.40
2024-02-02T18:12:12.102Z,97.28
2024-02-02T18:14:39.937Z,94.30
2024-02-02T18:17:08.610Z,106.47
2024-02-02T18:19:38.035Z,111.07
2024-02-02T18:22:06.611Z,100.65
2024-02-02T18:24:34.362Z,102.35
2024-02-02T18:27:02.689Z,113.25
2024-02-02T18:29:30.370Z,119.97
2024-02-02T18:31:58.663Z,94.57
2024-02-02T18:34:26.526Z,108.10
2024-02-02T18:36:56.670Z,109.57
2024-02-02T18:39:24.365Z,112.03
2024-02-02T18:41:52.916Z,100.05
2024-02-02T18:44:20.574Z,90.43
2024-02-02T18:46:48.712Z,106.35
2024-02-02T18:49:16.673Z,106.50
2024-02-02T18:51:44.461Z,101.30
2024-02-02T18:54:14.682Z,89.97
2024-02-02T18:56:42.463Z,104.95
2024-02-02T18:59:10.116Z,111.75
2024-02-02T19:01:38.694Z,96.85
2024-02-02T19:04:06.708Z,89.40
2024-02-02T19:06:38.772Z,1.20
2024-02-02T19:09:07.625Z,0.25
2024-02-02T19:11:37.697Z,0.60
2024-02-02T19:14:06.600Z,3.00
2024-02-02T19:16:34.745Z,7.00
2024-02-02T19:19:02.560Z,1.50
2024-02-02T19:21:33.354Z,0.43
2024-02-02T19:24:02.763Z,0.38
2024-02-02T19:26:30.722Z,0.30
2024-02-02T19:29:00.223Z,0.90
2024-02-02T19:31:28.736Z,0.38
2024-02-02T19:33:57.972Z,2.20
2024-02-02T19:36:28.409Z,0.00
2024-02-02T19:38:57.740Z,0.10
2024-02-02T19:41:26.728Z,3.00
2024-02-02T19:43:55.720Z,0.98
2024-02-02T19:46:35.190Z,0.40
2024-02-02T19:49:04.865Z,1.48
2024-02-02T19:51:33.822Z,0.45
2024-02-02T19:54:02.891Z,0.05
2024-02-02T19:56:30.717Z,1.80
2024-02-02T19:58:59.735Z,1.87
2024-02-02T20:01:27.536Z,2.42
2024-02-02T20:03:57.808Z,0.60
2024-02-02T20:06:25.654Z,0.45
2024-02-02T20:08:53.742Z,0.40
2024-02-02T20:11:22.933Z,0.20
2024-02-02T20:13:50.692Z,0.20
2024-02-02T20:19:02.923Z,1.70
2024-02-02T20:21:30.687Z,0.10
2024-02-02T20:23:58.781Z,0.70
2024-02-02T20:26:26.773Z,0.10
2024-02-02T20:28:55.833Z,0.25
2024-02-02T20:31:24.816Z,0.70
2024-02-02T20:33:54.379Z,0.30
2024-02-02T20:36:29.245Z,5.88
2024-02-02T20:39:15.295Z,2.33
2024-02-02T20:41:43.784Z,1.00
2024-02-02T20:44:11.431Z,0.10
2024-02-02T20:46:39.786Z,0.20
2024-02-02T20:49:07.543Z,1.00
2024-02-02T20:51:41.853Z,0.10
2024-02-02T20:54:09.559Z,0.55
2024-02-02T20:56:41.812Z,1.40
2024-02-02T20:59:09.526Z,0.32
2024-02-02T21:01:37.845Z,0.70
2024-02-02T21:04:05.992Z,2.20
2024-02-02T21:06:34.010Z,0.80
2024-02-02T21:09:03.913Z,2.58
2024-02-02T21:11:31.728Z,1.50
2024-02-02T21:13:59.817Z,0.60
2024-02-02T21:16:27.452Z,0.30
2024-02-02T21:18:57.978Z,0.40
2024-02-02T21:21:25.769Z,0.70
2024-02-02T21:23:53.848Z,0.22
2024-02-02T21:26:23.805Z,4.65
2024-02-02T21:28:51.839Z,0.50
2024-02-02T21:31:19.665Z,2.10
2024-02-02T21:33:47.875Z,0.35
2024-02-02T21:36:15.677Z,1.67
2024-02-02T21:38:43.688Z,1.33
2024-02-02T21:41:11.886Z,0.10
2024-02-02T21:43:40.963Z,2.40
2024-02-02T21:46:08.866Z,1.40
2024-02-02T21:48:36.743Z,0.30
2024-02-02T21:51:08.886Z,1.00
2024-02-02T21:53:36.647Z,2.23
2024-02-02T21:56:05.867Z,0.57
2024-02-02T21:58:33.545Z,0.08
2024-02-02T22:01:03.062Z,0.40
2024-02-02T22:03:30.980Z,11.70
2024-02-02T22:05:58.911Z,0.90
2024-02-02T22:08:26.675Z,0.40
2024-02-02T22:10:54.318Z,1.45
2024-02-02T22:13:22.875Z,0.50
2024-02-02T22:15:50.648Z,0.30
2024-02-02T22:18:20.188Z,0.38
2024-02-02T22:20:48.911Z,2.47
2024-02-02T22:23:16.584Z,1.00
2024-02-02T22:25:44.930Z,2.80
2024-02-02T22:28:13.239Z,0.20
2024-02-02T22:30:41.981Z,1.50
2024-02-02T22:33:09.855Z,0.45
2024-02-02T22:35:39.916Z,0.38
2024-02-02T22:38:07.696Z,0.20
2024-02-02T22:40:35.982Z,0.32
2024-02-02T22:43:03.698Z,0.30
2024-02-02T22:45:31.481Z,0.70
2024-02-02T22:48:00.019Z,0.20
2024-02-02T22:50:27.748Z,1.05
2024-02-02T22:52:57.111Z,0.77
2024-02-02T22:55:24.952Z,0.28
2024-02-02T22:57:52.672Z,0.10
2024-02-02T23:00:22.561Z,3.10
2024-02-02T23:02:51.981Z,1.20
2024-02-02T23:05:19.659Z,0.22
2024-02-02T23:07:47.306Z,0.98
2024-02-02T23:10:16.942Z,2.30
2024-02-02T23:12:46.089Z,0.80
2024-02-02T23:15:15.003Z,0.77
2024-02-02T23:17:43.398Z,0.28
2024-02-02T23:20:12.114Z,0.73
2024-02-02T23:22:39.828Z,9.50
2024-02-02T23:25:07.967Z,0.50
2024-02-02T23:27:38.067Z,0.00
2024-02-02T23:30:07.983Z,4.20
2024-02-02T23:32:35.754Z,0.90
2024-02-02T23:35:04.056Z,0.80
2024-02-02T23:37:32.143Z,6.55
2024-02-02T23:40:00.005Z,0.13
2024-02-02T23:42:27.716Z,1.30
2024-02-02T23:44:57.051Z,2.85
2024-02-02T23:47:24.694Z,0.30
2024-02-02T23:49:52.370Z,1.30
2024-02-02T23:52:21.011Z,2.08
2024-02-02T23:54:48.799Z,0.90
2024-02-02T23:57:22.129Z,0.80
2024-02-02T23:59:49.825Z,0.50
